Time;durP1;ratioP1;P1;durP2;ratioP2;P2;SDS_P1;SDS_P2;PMS_P1;PMS_P2;Temp;Humidity;BMP_temperature;BMP_pressure;BME280_temperature;BME280_humidity;BME280_pressure;Samples;Min_cycle;Max_cycle;Signal;HPM_P1;HPM_P2
2022/11/13 00:00:24;;;;;;;;;;;;;;;25.89;55.07;98512.02;587246;241;41092;-74
2022/11/13 00:03:10;;;;;;;;;;;;;;;25.90;54.77;98512.81;587288;241;40375;-74
2022/11/13 00:06:02;;;;;;;;;;;;;;;25.88;54.49;98514.95;587252;241;40564;-74
2022/11/13 00:08:48;;;;;;;;;;;;;;;25.87;55.62;98514.16;587324;241;41233;-75
2022/11/13 00:11:34;;;;;;;;;;;;;;;25.85;56.90;98510.91;587286;241;40519;-74
2022/11/13 00:14:19;;;;;;;;;;;;;;;25.85;55.56;98508.22;587262;241;44482;-74
2022/11/13 00:17:05;;;;;;;;;;;;;;;25.85;54.88;98510.11;587251;241;39276;-74
2022/11/13 00:19:50;;;;;;;;;;;;;;;25.83;55.46;98510.36;587267;241;44606;-74
2022/11/13 00:22:36;;;;;;;;;;;;;;;25.83;55.66;98510.36;587262;241;40388;-74
2022/11/13 00:25:22;;;;;;;;;;;;;;;25.83;55.95;98501.45;587237;241;41094;-68
2022/11/13 00:28:08;;;;;;;;;;;;;;;25.82;56.82;98513.31;587260;241;40393;-68
2022/11/13 00:30:55;;;;;;;;;;;;;;;25.80;54.56;98505.48;587290;241;40081;-67
2022/11/13 00:33:40;;;;;;;;;;;;;;;25.80;55.64;98500.09;587239;241;41076;-68
2022/11/13 00:36:27;;;;;;;;;;;;;;;25.80;54.53;98507.37;587263;241;40396;-67
2022/11/13 00:39:12;;;;;;;;;;;;;;;25.79;55.38;98503.88;587291;241;44786;-68
2022/11/13 00:41:58;;;;;;;;;;;;;;;25.78;54.27;98504.12;587276;241;40983;-67
2022/11/13 00:44:43;;;;;;;;;;;;;;;25.77;56.58;98497.94;587286;241;39794;-68
2022/11/13 00:47:29;;;;;;;;;;;;;;;25.77;56.29;98502.52;587249;241;40413;-68
2022/11/13 00:50:15;;;;;;;;;;;;;;;25.76;55.99;98495.53;587257;241;38969;-67
2022/11/13 00:53:00;;;;;;;;;;;;;;;25.74;53.64;98500.37;587299;241;41989;-68
2022/11/13 00:55:46;;;;;;;;;;;;;;;25.74;57.42;98494.98;587245;241;40420;-68
2022/11/13 00:58:32;;;;;;;;;;;;;;;25.72;56.50;98502.51;587294;241;38882;-68
2022/11/13 01:01:18;;;;;;;;;;;;;;;25.71;55.08;98495.52;587257;241;44548;-68
2022/11/13 01:04:04;;;;;;;;;;;;;;;25.71;55.91;98499.02;587272;241;44605;-68
2022/11/13 01:06:49;;;;;;;;;;;;;;;25.69;56.04;98493.88;587235;241;39511;-68
2022/11/13 01:09:35;;;;;;;;;;;;;;;25.69;55.01;98495.77;587304;241;40652;-74
2022/11/13 01:12:21;;;;;;;;;;;;;;;25.69;57.10;98482.30;587302;241;40981;-74
2022/11/13 01:15:07;;;;;;;;;;;;;;;25.67;55.46;98481.75;587260;241;39718;-74
2022/11/13 01:17:53;;;;;;;;;;;;;;;25.66;56.03;98480.16;587265;241;40425;-74
2022/11/13 01:20:39;;;;;;;;;;;;;;;25.65;56.24;98470.47;587265;241;40397;-68
2022/11/13 01:23:25;;;;;;;;;;;;;;;25.65;57.07;98473.96;587269;241;39116;-68
2022/11/13 01:26:12;;;;;;;;;;;;;;;25.64;56.40;98471.52;587304;241;39227;-68
2022/11/13 01:28:58;;;;;;;;;;;;;;;25.63;56.70;98469.91;587261;241;40421;-67
2022/11/13 01:31:44;;;;;;;;;;;;;;;25.62;56.61;98468.31;587267;241;39653;-67
2022/11/13 01:34:29;;;;;;;;;;;;;;;25.62;54.76;98471.80;587243;241;40400;-67
2022/11/13 01:37:15;;;;;;;;;;;;;;;25.61;54.82;98469.37;587238;241;44583;-67
2022/11/13 01:40:01;;;;;;;;;;;;;;;25.60;56.67;98473.95;587318;241;39027;-68
2022/11/13 01:42:46;;;;;;;;;;;;;;;25.59;54.47;98461.58;588181;240;40310;-68
2022/11/13 01:45:52;;;;;;;;;;;;;;;25.59;54.91;98468.81;591613;240;40328;-68
2022/11/13 01:48:42;;;;;;;;;;;;;;;25.58;54.58;98465.32;591112;240;39115;-68
2022/11/13 01:51:29;;;;;;;;;;;;;;;25.58;56.46;98459.13;588054;240;43296;-75
2022/11/13 01:54:16;;;;;;;;;;;;;;;25.55;54.27;98452.40;590656;240;44473;-74
2022/11/13 01:57:02;;;;;;;;;;;;;;;25.55;55.02;98456.98;590980;240;41356;-75
2022/11/13 01:59:50;;;;;;;;;;;;;;;25.54;54.17;98449.98;590984;240;40413;-74
2022/11/13 02:02:35;;;;;;;;;;;;;;;25.52;55.20;98455.63;590940;240;40622;-74
2022/11/13 02:05:21;;;;;;;;;;;;;;;25.52;55.21;98454.82;590953;240;39181;-74
2022/11/13 02:08:06;;;;;;;;;;;;;;;25.51;54.78;98447.80;590982;240;44786;-75
2022/11/13 02:10:52;;;;;;;;;;;;;;;25.50;54.79;98447.00;591007;240;41786;-67
2022/11/13 02:13:38;;;;;;;;;;;;;;;25.50;56.84;98454.27;590986;240;41254;-68
2022/11/13 02:16:23;;;;;;;;;;;;;;;25.48;53.83;98454.52;591043;240;40413;-68
2022/11/13 02:19:11;;;;;;;;;;;;;;;25.47;53.36;98451.03;590988;240;47801;-68
2022/11/13 02:21:58;;;;;;;;;;;;;;;25.48;55.49;98457.22;590990;240;41233;-68
2022/11/13 02:24:45;;;;;;;;;;;;;;;25.47;55.72;98453.72;590996;240;44345;-68
2022/11/13 02:27:33;;;;;;;;;;;;;;;25.45;54.63;98449.67;590965;240;40311;-68
2022/11/13 02:30:20;;;;;;;;;;;;;;;25.44;54.48;98451.56;589764;240;39409;-68
2022/11/13 02:33:22;;;;;;;;;;;;;;;25.43;52.72;98452.65;590052;240;44893;-68
2022/11/13 02:36:09;;;;;;;;;;;;;;;25.44;53.79;98448.06;590041;240;44370;-68
2022/11/13 02:38:56;;;;;;;;;;;;;;;25.42;54.71;98456.39;590515;240;39155;-68
2022/11/13 02:41:42;;;;;;;;;;;;;;;25.41;53.87;98451.30;590991;240;41991;-68
2022/11/13 02:44:28;;;;;;;;;;;;;;;25.40;55.79;98457.73;589417;240;44571;-67
2022/11/13 02:47:13;;;;;;;;;;;;;;;25.38;53.24;98451.83;589629;240;38990;-68
2022/11/13 02:49:59;;;;;;;;;;;;;;;25.38;55.58;98455.32;589693;240;40151;-68
2022/11/13 02:52:45;;;;;;;;;;;;;;;25.37;55.47;98452.88;589687;240;40290;-67
2022/11/13 02:55:30;;;;;;;;;;;;;;;25.35;53.36;98453.16;589608;240;41323;-68
2022/11/13 02:58:16;;;;;;;;;;;;;;;25.36;57.38;98454.77;589592;240;44528;-68
2022/11/13 03:01:03;;;;;;;;;;;;;;;25.34;52.81;98453.41;589636;240;41556;-67
2022/11/13 03:03:49;;;;;;;;;;;;;;;25.34;54.67;98459.60;589618;240;39189;-67
2022/11/13 03:06:34;;;;;;;;;;;;;;;25.33;55.48;98470.64;589597;240;44258;-68
2022/11/13 03:09:20;;;;;;;;;;;;;;;25.32;53.37;98467.16;589638;240;41538;-67
2022/11/13 03:12:07;;;;;;;;;;;;;;;25.32;53.55;98460.94;589581;240;41196;-68
2022/11/13 03:14:52;;;;;;;;;;;;;;;25.31;53.22;98462.02;589601;240;40104;-68
2022/11/13 03:17:38;;;;;;;;;;;;;;;25.30;55.89;98463.91;589612;240;40067;-68
2022/11/13 03:20:24;;;;;;;;;;;;;;;25.29;56.46;98462.30;589626;240;39523;-69
2022/11/13 03:23:09;;;;;;;;;;;;;;;25.28;54.71;98460.66;589642;240;40310;-68
2022/11/13 03:25:55;;;;;;;;;;;;;;;25.27;53.47;98459.06;589538;240;40704;-67
2022/11/13 03:28:41;;;;;;;;;;;;;;;25.27;54.34;98469.82;589594;240;39078;-67
2022/11/13 03:31:26;;;;;;;;;;;;;;;25.26;54.72;98465.49;589581;240;44654;-68
2022/11/13 03:34:12;;;;;;;;;;;;;;;25.25;56.09;98469.27;589597;240;40301;-67
2022/11/13 03:36:58;;;;;;;;;;;;;;;25.24;57.41;98459.59;589573;240;39021;-68
2022/11/13 03:39:43;;;;;;;;;;;;;;;25.23;56.85;98466.02;589605;240;43390;-68
2022/11/13 03:42:29;;;;;;;;;;;;;;;25.23;57.39;98468.72;589289;240;40413;-69
2022/11/13 03:45:15;;;;;;;;;;;;;;;25.22;54.41;98461.73;587236;241;39498;-67
2022/11/13 03:48:00;;;;;;;;;;;;;;;25.22;57.72;98467.91;587268;241;43096;-68
2022/11/13 03:50:47;;;;;;;;;;;;;;;25.20;55.90;98455.80;587272;241;40302;-67
2022/11/13 03:53:33;;;;;;;;;;;;;;;25.20;57.72;98463.86;587252;241;40983;-68
2022/11/13 03:56:19;;;;;;;;;;;;;;;25.19;56.55;98462.26;587238;241;40652;-68
2022/11/13 03:59:04;;;;;;;;;;;;;;;25.17;55.44;98462.51;587233;241;44736;-68
2022/11/13 04:01:50;;;;;;;;;;;;;;;25.16;53.44;98460.09;587239;241;39240;-68
2022/11/13 04:04:36;;;;;;;;;;;;;;;25.15;55.08;98455.77;587224;241;43292;-69
2022/11/13 04:07:22;;;;;;;;;;;;;;;25.15;56.89;98458.46;587236;241;44241;-68
2022/11/13 04:10:07;;;;;;;;;;;;;;;25.15;54.04;98466.53;587250;241;39068;-67
2022/11/13 04:12:53;;;;;;;;;;;;;;;25.13;53.77;98455.22;587283;241;40319;-68
2022/11/13 04:15:39;;;;;;;;;;;;;;;25.14;54.50;98462.20;587250;241;44496;-68
2022/11/13 04:18:25;;;;;;;;;;;;;;;25.12;55.65;98462.45;587326;241;41184;-68
2022/11/13 04:21:10;;;;;;;;;;;;;;;25.12;55.27;98464.34;587289;241;44613;-68
2022/11/13 04:23:56;;;;;;;;;;;;;;;25.11;56.29;98463.53;587301;241;44455;-68
2022/11/13 04:26:41;;;;;;;;;;;;;;;25.10;53.61;98469.16;587275;241;41199;-68
2022/11/13 04:29:27;;;;;;;;;;;;;;;25.10;52.94;98463.78;587264;241;40411;-67
2022/11/13 04:32:13;;;;;;;;;;;;;;;25.08;54.04;98468.64;587271;241;44478;-68
2022/11/13 04:34:59;;;;;;;;;;;;;;;25.08;55.91;98474.02;587270;241;41160;-67
2022/11/13 04:37:44;;;;;;;;;;;;;;;25.07;53.67;98481.25;587269;241;40401;-67
2022/11/13 04:40:30;;;;;;;;;;;;;;;25.07;56.03;98477.77;587275;241;44225;-68
2022/11/13 04:43:16;;;;;;;;;;;;;;;25.06;54.15;98476.16;589038;240;41088;-68
2022/11/13 04:46:01;;;;;;;;;;;;;;;25.04;53.96;98473.72;591644;240;40411;-67
2022/11/13 04:48:47;;;;;;;;;;;;;;;25.05;55.26;98469.17;591111;240;40725;-67
2022/11/13 04:51:33;;;;;;;;;;;;;;;25.04;55.81;98468.34;591071;240;39045;-68
2022/11/13 04:54:18;;;;;;;;;;;;;;;25.02;55.88;98473.19;590975;240;44615;-68
2022/11/13 04:57:04;;;;;;;;;;;;;;;25.01;54.36;98471.55;591005;240;44469;-68
2022/11/13 04:59:50;;;;;;;;;;;;;;;25.02;54.30;98468.62;591011;240;39312;-68
2022/11/13 05:02:36;;;;;;;;;;;;;;;25.01;55.63;98471.55;591023;240;41970;-67
2022/11/13 05:05:21;;;;;;;;;;;;;;;24.99;53.77;98469.14;591002;240;40336;-68
2022/11/13 05:08:07;;;;;;;;;;;;;;;25.00;56.06;98476.13;591009;240;40985;-68
2022/11/13 05:10:52;;;;;;;;;;;;;;;24.99;54.28;98471.00;590990;240;40108;-68
2022/11/13 05:13:38;;;;;;;;;;;;;;;24.98;54.44;98472.89;590983;238;40340;-67
2022/11/13 05:16:24;;;;;;;;;;;;;;;24.97;55.75;98462.41;590975;240;39336;-68
2022/11/13 05:19:10;;;;;;;;;;;;;;;24.95;55.89;98468.03;591002;240;45096;-67
2022/11/13 05:21:55;;;;;;;;;;;;;;;24.95;55.56;98461.85;591028;240;44390;-67
2022/11/13 05:24:41;;;;;;;;;;;;;;;24.93;53.03;98462.09;591010;240;39070;-67
2022/11/13 05:27:27;;;;;;;;;;;;;;;24.95;55.01;98461.85;590939;240;40596;-68
2022/11/13 05:30:12;;;;;;;;;;;;;;;24.92;53.99;98462.37;590972;240;43383;-74
2022/11/13 05:32:58;;;;;;;;;;;;;;;24.91;54.70;98464.27;590994;240;39844;-74
2022/11/13 05:35:44;;;;;;;;;;;;;;;24.91;54.85;98469.64;590972;240;40467;-75
2022/11/13 05:38:30;;;;;;;;;;;;;;;24.91;54.74;98468.81;590980;240;40333;-75
2022/11/13 05:41:17;;;;;;;;;;;;;;;24.90;55.69;98470.69;590990;240;39248;-74
2022/11/13 05:44:03;;;;;;;;;;;;;;;24.89;55.36;98468.28;590889;240;43250;-74
2022/11/13 05:46:48;;;;;;;;;;;;;;;24.87;52.51;98468.53;590962;240;40409;-74
2022/11/13 05:49:34;;;;;;;;;;;;;;;24.87;55.06;98473.11;591046;240;39267;-74
2022/11/13 05:52:20;;;;;;;;;;;;;;;24.85;52.70;98476.05;590929;240;40409;-74
2022/11/13 05:55:06;;;;;;;;;;;;;;;24.84;55.53;98476.32;590983;240;44824;-75
2022/11/13 05:57:51;;;;;;;;;;;;;;;24.85;55.02;98483.30;591001;240;41211;-74
2022/11/13 06:00:37;;;;;;;;;;;;;;;24.83;56.13;98486.27;590922;240;44674;-75
2022/11/13 06:03:23;;;;;;;;;;;;;;;24.82;52.47;98487.33;590991;240;40196;-74
2022/11/13 06:06:10;;;;;;;;;;;;;;;24.82;55.47;98487.33;590992;240;39142;-74
2022/11/13 06:08:56;;;;;;;;;;;;;;;24.81;53.84;98493.78;590850;240;40512;-74
2022/11/13 06:11:43;;;;;;;;;;;;;;;24.80;55.77;98487.59;590995;240;44784;-74
2022/11/13 06:14:29;;;;;;;;;;;;;;;24.80;55.12;98484.11;589896;240;39160;-74
2022/11/13 06:17:14;;;;;;;;;;;;;;;24.79;55.26;98483.27;590617;240;40411;-74
2022/11/13 06:20:00;;;;;;;;;;;;;;;24.78;55.25;98489.73;590967;240;41936;-74
2022/11/13 06:22:46;;;;;;;;;;;;;;;24.78;54.27;98478.98;590997;240;39044;-74
2022/11/13 06:25:31;;;;;;;;;;;;;;;24.78;53.58;98488.92;590922;240;40443;-74
2022/11/13 06:28:17;;;;;;;;;;;;;;;24.77;55.87;98493.50;590815;240;40328;-74
2022/11/13 06:31:13;;;;;;;;;;;;;;;24.77;53.31;98495.36;591022;240;41510;-74
2022/11/13 06:33:59;;;;;;;;;;;;;;;24.77;54.94;98490.81;590942;240;40122;-74
2022/11/13 06:36:44;;;;;;;;;;;;;;;24.77;55.41;98492.66;590533;240;40409;-74
2022/11/13 06:39:30;;;;;;;;;;;;;;;24.76;54.75;98491.05;590964;240;39497;-73
2022/11/13 06:42:16;;;;;;;;;;;;;;;24.76;53.41;98496.44;590981;240;44996;-71
2022/11/13 06:45:02;;;;;;;;;;;;;;;24.74;55.13;98485.93;590874;240;40464;-75
2022/11/13 06:47:47;;;;;;;;;;;;;;;24.74;55.17;98493.99;590932;238;41205;-75
2022/11/13 06:50:33;;;;;;;;;;;;;;;24.74;55.76;98487.81;590980;240;39178;-73
2022/11/13 06:53:19;;;;;;;;;;;;;;;24.73;55.64;98487.01;590939;240;43255;-73
2022/11/13 06:56:05;;;;;;;;;;;;;;;24.73;53.26;98476.25;590961;238;41139;-74
2022/11/13 06:58:51;;;;;;;;;;;;;;;24.73;55.17;98488.89;590996;240;40430;-73
2022/11/13 07:01:36;;;;;;;;;;;;;;;24.72;54.67;98485.40;590942;240;44525;-73
2022/11/13 07:04:22;;;;;;;;;;;;;;;24.72;53.93;98484.59;591009;240;39119;-73
2022/11/13 07:07:08;;;;;;;;;;;;;;;24.71;55.74;98478.39;590942;240;40328;-73
2022/11/13 07:09:53;;;;;;;;;;;;;;;24.70;55.93;98478.66;590900;240;40412;-73
2022/11/13 07:12:40;;;;;;;;;;;;;;;24.70;56.03;98471.41;591001;240;39126;-75
2022/11/13 07:15:26;;;;;;;;;;;;;;;24.69;56.33;98479.71;590757;240;42978;-75
2022/11/13 07:18:12;;;;;;;;;;;;;;;24.69;54.41;98474.34;590236;240;40406;-75
2022/11/13 07:20:58;;;;;;;;;;;;;;;24.69;55.42;98468.96;590944;240;41176;-76
2022/11/13 07:23:44;;;;;;;;;;;;;;;24.69;55.33;98474.34;590974;240;43403;-74
2022/11/13 07:26:29;;;;;;;;;;;;;;;24.68;55.20;98475.42;590994;238;39886;-75
2022/11/13 07:29:15;;;;;;;;;;;;;;;24.68;54.90;98470.84;590906;240;41172;-74
2022/11/13 07:32:01;;;;;;;;;;;;;;;24.68;54.35;98470.04;590957;238;40143;-75
2022/11/13 07:34:46;;;;;;;;;;;;;;;24.68;55.65;98459.29;590972;240;40433;-75
2022/11/13 07:37:32;;;;;;;;;;;;;;;24.68;54.48;98456.59;590979;240;38808;-69
2022/11/13 07:40:18;;;;;;;;;;;;;;;24.67;53.54;98449.62;590975;240;41819;-68
2022/11/13 07:43:03;;;;;;;;;;;;;;;24.68;57.15;98453.91;590984;240;40190;-68
2022/11/13 07:45:53;;;;;;;;;;;;;;;24.68;54.46;98451.22;591032;240;38800;-69
2022/11/13 07:48:36;;;;;;;;;;;;;;;24.69;55.75;98452.83;590944;240;43123;-69
2022/11/13 07:51:22;;;;;;;;;;;;;;;24.68;54.26;98462.78;590955;240;44511;-69
2022/11/13 07:54:08;;;;;;;;;;;;;;;24.68;54.76;98451.22;590972;240;38817;-68
2022/11/13 07:56:53;;;;;;;;;;;;;;;24.69;55.74;98452.83;590966;240;44475;-69
2022/11/13 07:59:39;;;;;;;;;;;;;;;24.68;54.49;98451.22;590878;240;40414;-69
2022/11/13 08:02:25;;;;;;;;;;;;;;;24.68;57.95;98452.03;590939;240;41085;-69
2022/11/13 08:05:10;;;;;;;;;;;;;;;24.68;53.88;98446.66;590954;238;40660;-69
2022/11/13 08:07:56;;;;;;;;;;;;;;;24.71;55.24;98448.02;590966;240;40333;-69
2022/11/13 08:10:42;;;;;;;;;;;;;;;24.72;57.69;98449.65;590967;240;41193;-68
2022/11/13 08:13:27;;;;;;;;;;;;;;;24.72;58.56;98445.08;591027;240;44532;-69
2022/11/13 08:16:13;;;;;;;;;;;;;;;24.72;55.90;98441.59;590997;240;40415;-68
2022/11/13 08:18:59;;;;;;;;;;;;;;;24.73;55.01;98438.62;590999;240;39159;-69
2022/11/13 08:21:44;;;;;;;;;;;;;;;24.74;56.66;98439.42;591018;240;40346;-69
2022/11/13 08:24:30;;;;;;;;;;;;;;;24.75;57.06;98438.37;590950;240;40337;-69
2022/11/13 08:27:16;;;;;;;;;;;;;;;24.75;58.77;98443.75;591017;240;39273;-69
2022/11/13 08:30:01;;;;;;;;;;;;;;;24.75;55.85;98431.11;590961;240;43208;-69
2022/11/13 08:32:47;;;;;;;;;;;;;;;24.77;57.39;98433.52;590947;240;41357;-75
2022/11/13 08:35:33;;;;;;;;;;;;;;;24.77;55.27;98436.20;590992;240;39145;-74
2022/11/13 08:38:19;;;;;;;;;;;;;;;24.77;54.96;98428.97;590975;240;44771;-75
2022/11/13 08:41:05;;;;;;;;;;;;;;;24.79;55.13;98431.38;590864;240;44410;-76
2022/11/13 08:43:51;;;;;;;;;;;;;;;24.79;56.22;98432.19;589980;240;39130;-76
2022/11/13 08:46:37;;;;;;;;;;;;;;;24.78;54.26;98427.09;587291;241;44739;-75
2022/11/13 08:49:22;;;;;;;;;;;;;;;24.80;55.93;98424.95;587237;241;42900;-74
2022/11/13 08:52:08;;;;;;;;;;;;;;;24.80;53.14;98424.95;587245;241;41399;-75
2022/11/13 08:54:54;;;;;;;;;;;;;;;24.81;55.57;98437.31;587235;241;44562;-75
2022/11/13 08:57:40;;;;;;;;;;;;;;;24.81;56.70;98429.25;587166;241;45172;-75
2022/11/13 09:00:26;;;;;;;;;;;;;;;24.82;55.56;98430.86;587260;239;39155;-76
2022/11/13 09:03:12;;;;;;;;;;;;;;;24.83;55.98;98426.28;587253;241;40431;-73
2022/11/13 09:05:58;;;;;;;;;;;;;;;24.83;56.76;98424.43;587237;241;40310;-74
2022/11/13 09:08:44;;;;;;;;;;;;;;;24.84;55.72;98422.55;587256;241;41111;-75
2022/11/13 09:11:30;;;;;;;;;;;;;;;24.84;56.13;98417.16;587300;241;43288;-74
2022/11/13 09:14:17;;;;;;;;;;;;;;;24.84;52.94;98412.59;587293;241;43236;-74
2022/11/13 09:17:03;;;;;;;;;;;;;;;24.85;54.80;98400.75;587325;241;38896;-74
2022/11/13 09:19:49;;;;;;;;;;;;;;;24.86;57.97;98394.32;587253;241;40046;-74
2022/11/13 09:22:34;;;;;;;;;;;;;;;24.86;59.05;98391.63;587253;241;44589;-74
2022/11/13 09:25:20;;;;;;;;;;;;;;;24.86;55.81;98390.83;587250;241;41234;-74
2022/11/13 09:28:06;;;;;;;;;;;;;;;24.87;58.44;98377.11;587279;241;42105;-75
2022/11/13 09:30:51;;;;;;;;;;;;;;;24.87;57.58;98369.04;587276;241;41810;-75
2022/11/13 09:33:37;;;;;;;;;;;;;;;24.89;57.90;98366.91;587257;241;39264;-74
2022/11/13 09:36:23;;;;;;;;;;;;;;;24.89;57.03;98369.59;587258;241;44841;-74
2022/11/13 09:39:08;;;;;;;;;;;;;;;24.91;57.97;98366.62;587249;241;40387;-74
2022/11/13 09:41:56;;;;;;;;;;;;;;;24.90;58.34;98371.20;587314;241;39085;-74
2022/11/13 09:44:46;;;;;;;;;;;;;;;24.89;57.03;98353.45;587317;241;44606;-75
2022/11/13 09:47:33;;;;;;;;;;;;;;;24.90;57.08;98355.06;587296;241;43143;-75
2022/11/13 09:50:23;;;;;;;;;;;;;;;24.90;53.11;98347.00;587260;239;39922;-75
2022/11/13 09:53:10;;;;;;;;;;;;;;;24.92;58.39;98342.17;587225;241;40390;-74
2022/11/13 09:55:57;;;;;;;;;;;;;;;24.93;56.96;98340.28;587241;241;40523;-74
2022/11/13 09:58:45;;;;;;;;;;;;;;;24.93;56.01;98341.09;587270;241;39206;-75
2022/11/13 10:01:35;;;;;;;;;;;;;;;24.94;56.93;98329.28;587246;241;44672;-75
2022/11/13 10:04:22;;;;;;;;;;;;;;;24.94;55.29;98331.97;587239;241;40306;-75
2022/11/13 10:07:18;;;;;;;;;;;;;;;24.95;58.09;98322.02;587244;241;41123;-75
2022/11/13 10:10:06;;;;;;;;;;;;;;;24.95;57.53;98312.06;587242;241;43364;-75
2022/11/13 10:12:54;;;;;;;;;;;;;;;24.96;56.34;98313.69;587235;241;40069;-74
2022/11/13 10:15:41;;;;;;;;;;;;;;;24.96;55.78;98305.62;587242;241;41103;-76
2022/11/13 10:18:30;;;;;;;;;;;;;;;24.97;56.17;98301.05;587278;241;43244;-74
2022/11/13 10:21:33;;;;;;;;;;;;;;;24.98;57.72;98297.27;587248;241;40839;-75
2022/11/13 10:24:26;;;;;;;;;;;;;;;24.98;56.41;98283.83;572263;245;41015;-75
2022/11/13 10:27:13;;;;;;;;;;;;;;;24.98;57.99;98278.45;586870;241;40442;-75
2022/11/13 10:29:58;;;;;;;;;;;;;;;24.97;56.02;98280.34;587181;241;44494;-76
2022/11/13 10:32:44;;;;;;;;;;;;;;;24.98;57.55;98281.14;586342;241;39087;-75
2022/11/13 10:35:41;;;;;;;;;;;;;;;24.98;57.51;98271.18;587226;241;40389;-75
2022/11/13 10:38:43;;;;;;;;;;;;;;;24.98;57.66;98263.11;587194;241;40425;-75
2022/11/13 10:41:28;;;;;;;;;;;;;;;24.98;56.96;98257.73;579248;241;38893;-68
2022/11/13 10:44:28;;;;;;;;;;;;;;;24.98;56.34;98257.73;590749;240;40115;-67
2022/11/13 10:47:15;;;;;;;;;;;;;;;24.98;56.72;98254.24;591580;240;44750;-68
2022/11/13 10:50:11;;;;;;;;;;;;;;;24.99;56.86;98248.61;591564;240;39370;-67
2022/11/13 10:52:57;;;;;;;;;;;;;;;25.00;58.63;98255.59;591003;240;44865;-68
2022/11/13 10:55:43;;;;;;;;;;;;;;;24.99;56.77;98251.30;590937;240;44503;-67
2022/11/13 10:58:29;;;;;;;;;;;;;;;25.00;57.14;98249.41;590477;240;44314;-67
2022/11/13 11:01:17;;;;;;;;;;;;;;;25.01;56.21;98245.64;590856;240;43357;-67
2022/11/13 11:04:06;;;;;;;;;;;;;;;25.00;57.12;98239.45;591005;240;44488;-67
2022/11/13 11:06:52;;;;;;;;;;;;;;;25.00;55.57;98228.70;591004;240;39161;-67
2022/11/13 11:09:38;;;;;;;;;;;;;;;25.00;57.12;98234.08;590990;240;40404;-67
2022/11/13 11:12:25;;;;;;;;;;;;;;;25.01;56.51;98224.92;590964;240;44401;-67
2022/11/13 11:15:13;;;;;;;;;;;;;;;25.01;57.06;98227.61;590957;240;39204;-67
2022/11/13 11:18:03;;;;;;;;;;;;;;;25.02;55.10;98226.56;590940;240;40365;-67
2022/11/13 11:20:53;;;;;;;;;;;;;;;25.03;56.12;98225.47;590981;240;44752;-67
2022/11/13 11:23:44;;;;;;;;;;;;;;;25.03;57.90;98230.84;590965;238;39134;-67
2022/11/13 11:26:30;;;;;;;;;;;;;;;25.03;58.20;98220.09;589825;240;44629;-67
2022/11/13 11:29:17;;;;;;;;;;;;;;;25.05;56.34;98213.66;590034;240;40422;-68
2022/11/13 11:32:07;;;;;;;;;;;;;;;25.06;58.40;98216.06;590921;240;39171;-67
2022/11/13 11:35:06;;;;;;;;;;;;;;;25.06;57.07;98220.64;590989;240;40316;-68
2022/11/13 11:37:56;;;;;;;;;;;;;;;25.07;56.94;98219.55;590978;240;40189;-67
2022/11/13 11:40:43;;;;;;;;;;;;;;;25.08;55.45;98213.12;591029;240;39105;-68
2022/11/13 11:43:30;;;;;;;;;;;;;;;25.08;57.03;98213.91;590297;240;40512;-68
2022/11/13 11:46:17;;;;;;;;;;;;;;;25.07;58.17;98206.91;590887;240;40622;-68
2022/11/13 11:49:03;;;;;;;;;;;;;;;25.08;56.49;98197.78;590676;240;39924;-68
2022/11/13 11:51:50;;;;;;;;;;;;;;;25.10;56.36;98202.87;589502;240;40397;-68
2022/11/13 11:54:43;;;;;;;;;;;;;;;25.09;55.77;98195.89;589587;240;42995;-68
2022/11/13 11:57:47;;;;;;;;;;;;;;;25.11;56.90;98196.44;589591;240;39873;-68
2022/11/13 12:00:35;;;;;;;;;;;;;;;25.11;55.91;98191.05;589582;240;43034;-68
2022/11/13 12:03:25;;;;;;;;;;;;;;;25.10;53.94;98184.88;589585;240;40793;-68
2022/11/13 12:06:28;;;;;;;;;;;;;;;25.11;57.47;98186.48;589627;240;38734;-67
2022/11/13 12:09:16;;;;;;;;;;;;;;;25.11;56.03;98178.41;589588;240;44182;-67
2022/11/13 12:12:09;;;;;;;;;;;;;;;25.13;55.87;98183.53;589596;238;44342;-68
2022/11/13 12:14:56;;;;;;;;;;;;;;;25.14;57.89;98183.25;588885;240;39893;-69
2022/11/13 12:17:43;;;;;;;;;;;;;;;25.13;56.74;98178.95;589616;240;40270;-66
2022/11/13 12:20:36;;;;;;;;;;;;;;;25.14;57.85;98174.38;589650;240;42941;-69
2022/11/13 12:23:23;;;;;;;;;;;;;;;25.15;56.57;98170.63;588919;240;38944;-69
2022/11/13 12:26:16;;;;;;;;;;;;;;;25.15;56.73;98173.31;589516;240;44310;-68
2022/11/13 12:29:20;;;;;;;;;;;;;;;25.16;56.09;98172.27;589608;238;44297;-69
2022/11/13 12:32:16;;;;;;;;;;;;;;;25.17;55.92;98173.86;589357;240;39062;-69
2022/11/13 12:35:10;;;;;;;;;;;;;;;25.17;56.41;98171.17;589012;240;40416;-68
2022/11/13 12:38:02;;;;;;;;;;;;;;;25.18;56.80;98165.53;588899;240;43181;-68
2022/11/13 12:40:50;;;;;;;;;;;;;;;25.18;56.53;98172.77;589585;240;41427;-68
2022/11/13 12:43:43;;;;;;;;;;;;;;;25.18;56.60;98170.09;590657;240;41186;-68
2022/11/13 12:46:33;;;;;;;;;;;;;;;25.19;55.49;98164.45;591420;240;40390;-68
2022/11/13 12:49:24;;;;;;;;;;;;;;;25.20;56.94;98170.63;590976;240;41388;-66
2022/11/13 12:52:17;;;;;;;;;;;;;;;25.20;55.33;98165.25;590985;240;40344;-68
2022/11/13 12:55:03;;;;;;;;;;;;;;;25.20;55.50;98165.25;590972;240;43264;-67
2022/11/13 12:57:49;;;;;;;;;;;;;;;25.20;56.57;98176.81;590997;240;39741;-69
2022/11/13 13:00:37;;;;;;;;;;;;;;;25.22;54.50;98168.48;590989;240;44968;-69
2022/11/13 13:03:27;;;;;;;;;;;;;;;25.22;53.53;98171.17;589899;240;41652;-68
2022/11/13 13:06:30;;;;;;;;;;;;;;;25.23;55.51;98170.08;590688;240;40987;-69
2022/11/13 13:09:18;;;;;;;;;;;;;;;25.23;55.04;98167.39;591041;240;44627;-68
2022/11/13 13:12:22;;;;;;;;;;;;;;;25.23;56.61;98173.58;590977;238;40715;-68
2022/11/13 13:15:09;;;;;;;;;;;;;;;25.23;55.49;98178.16;591041;240;39023;-69
2022/11/13 13:18:02;;;;;;;;;;;;;;;25.24;55.21;98180.59;590920;240;45009;-68
2022/11/13 13:20:58;;;;;;;;;;;;;;;25.25;55.78;98178.70;590982;240;44449;-69
2022/11/13 13:23:46;;;;;;;;;;;;;;;25.24;55.64;98185.97;591002;240;39111;-69
2022/11/13 13:26:31;;;;;;;;;;;;;;;25.24;56.66;98182.48;590947;240;40416;-68
2022/11/13 13:29:18;;;;;;;;;;;;;;;25.25;56.97;98181.39;590984;240;43442;-75
2022/11/13 13:32:08;;;;;;;;;;;;;;;25.24;54.95;98185.97;591013;238;40576;-75
2022/11/13 13:35:05;;;;;;;;;;;;;;;25.25;56.16;98186.77;590953;240;40139;-74
2022/11/13 13:37:52;;;;;;;;;;;;;;;25.25;55.23;98184.88;590990;240;41889;-74
2022/11/13 13:40:39;;;;;;;;;;;;;;;25.26;54.89;98185.68;590965;240;41099;-74
2022/11/13 13:43:26;;;;;;;;;;;;;;;25.26;56.80;98182.98;590931;237;42308;-74
2022/11/13 13:46:16;;;;;;;;;;;;;;;25.27;56.84;98192.70;590979;240;40427;-75
2022/11/13 13:49:03;;;;;;;;;;;;;;;25.27;55.17;98192.70;591032;240;39042;-75
2022/11/13 13:51:50;;;;;;;;;;;;;;;25.27;54.60;98190.00;591025;240;42559;-74
2022/11/13 13:54:36;;;;;;;;;;;;;;;25.27;56.78;98190.00;590983;240;44493;-75
2022/11/13 13:57:22;;;;;;;;;;;;;;;25.27;55.64;98195.38;590985;240;38985;-75
2022/11/13 14:00:12;;;;;;;;;;;;;;;25.29;55.97;98192.41;590999;238;40411;-74
2022/11/13 14:02:57;;;;;;;;;;;;;;;25.28;54.49;98182.73;590972;240;40417;-74
2022/11/13 14:05:43;;;;;;;;;;;;;;;25.28;56.87;98180.05;590995;240;39112;-74
2022/11/13 14:08:29;;;;;;;;;;;;;;;25.28;55.03;98178.16;590969;240;42053;-68
2022/11/13 14:11:17;;;;;;;;;;;;;;;25.28;57.12;98180.84;590979;240;42990;-67
2022/11/13 14:14:10;;;;;;;;;;;;;;;25.28;55.61;98180.05;590988;240;41321;-68
2022/11/13 14:16:57;;;;;;;;;;;;;;;25.29;55.93;98178.95;590989;240;40391;-68
2022/11/13 14:19:44;;;;;;;;;;;;;;;25.28;55.26;98180.84;590980;240;44452;-68
2022/11/13 14:22:30;;;;;;;;;;;;;;;25.30;56.18;98185.97;589905;240;39150;-68
2022/11/13 14:25:17;;;;;;;;;;;;;;;25.29;54.50;98170.88;590133;240;41939;-67
2022/11/13 14:28:02;;;;;;;;;;;;;;;25.30;56.05;98169.82;590944;240;40075;-68
2022/11/13 14:30:50;;;;;;;;;;;;;;;25.30;55.63;98175.20;590984;240;39283;-69